Share

Andover, SD

3:40 PM CDT on April 23, 2014 (GMT -0500)
KSDGROTO1 Elev 1295 ft | 45.45 °N, 98.10 °W | Change Station
Active Advisory: Wind AdvisoryFire Weather Warning

Current weather conditions updated 11 minutes ago

Overcast
Overcast
53.3 °F
Feels Like 53.3 °F
N
17.0
Wind Variable Wind from SSE
Gusts 34.0 mph
Sunrise 6:32 AM
Sunset 8:28 PM
Moon Waning Crescent

Today is forecast to be Much Cooler than yesterday.

Pressure 29.65 in
Visibility 10.0 miles
Clouds Few 2600 ft
Scattered Clouds 8000 ft
Mostly Cloudy 10000 ft
Dew Point 40 °F
Humidity 62%
Rainfall 0.03 in
Snow Depth Not available.
UV 5 out of 16
Pollen 7.60 out of 12
Air Quality Not available.
Flu Activity Sporadic
METAR KABR 231953Z AUTO 12020G31KT 10SM -RA FEW026 SCT080 BKN100 13/03 A2964 RMK AO2 PK WND 14039/1856 RAB52 SLP039 P0000 T01280028

More Conditions Fewer Conditions

Pressure 29.65 in
Visibility 10.0 miles
Clouds Few 2600 ft
Scattered Clouds 8000 ft
Mostly Cloudy 10000 ft
Dew Point 40 °F
Humidity 62%
Rainfall 0.03 in
Snow Depth Not available.
UV 5 out of 16
Pollen 7.60 out of 12
Air Quality Not available.
Flu Activity Sporadic
METAR KABR 231953Z AUTO 12020G31KT 10SM -RA FEW026 SCT080 BKN100 13/03 A2964 RMK AO2 PK WND 14039/1856 RAB52 SLP039 P0000 T01280028

More Conditions Fewer Conditions

10-Day Weather Forecast

Almanac

Astronomy

Apr. 23, 2014 Rise Set
Actual Time 6:32 AM CDT 8:28 PM CDT
Civil Twilight 6:00 AM CDT 8:59 PM CDT
Nautical Twilight 5:22 AM CDT 9:39 PM CDT
Astronomical Twilight 4:39 AM CDT 10:21 PM CDT
Moon 3:23 AM CDT 2:21 PM CDT
Length of Visible Light 14h 59m
Length of Day
13h 55m
Tomorrow will be 2m 56s longer.
Waning Crescent, 33% of the Moon is Illuminated
Today
Waning Crescent
Apr 29
New
May 6
First Quarter
May 14
Full
May 21
Last Quarter

Today's Extremes

State Highs State Lows

Community

  • Stunning Sunrise
    Stunning Sunrise
  • spring flowers
    spring flowers
  • Earth Day Spectrum Ove' Blue
    Earth Day Spectrum Ove' Blue
  • BARN B&W
    BARN B&W
  • April Sunset
    April Sunset

WunderPhotos

Upload Photos

1,704,409 photos uploaded!

WunderBlogs® & News

Nearby

Snow Depth

Station Depth Elevation
North Rapid Creek 12 in 6130 ft
Blind Park 11 in 6890 ft

Coastal Water Temperatures

Place Temperature
No Stations Reporting

Earthquake Activity

City Distance Mag. Time & Date
No recent earthquake activity has been reported nearby.
Minimum magnitude displayed is 2.5.

Nearby Weather Stations

Station Location Temp. Dew Point Humidity Wind Precip. Elev Updated Type
Groton, SD 53.3 °F 40 °F 62% SSE  at  17.0 mph 0.00 in / hr 1295 ft 3:28 PM CDT Normal

Show More Stations Show Fewer Stations

What do you think?

We're not finished. Please let us know what you like, what you don't like, and what you are still missing.